createdAt,value
2022-12-08T00:01:19.111Z,96801.03
2022-12-08T00:03:51.407Z,96801.59
2022-12-08T00:06:48.622Z,96816.00
2022-12-08T00:09:36.309Z,96825.16
2022-12-08T00:12:10.998Z,96820.31
2022-12-08T00:14:40.471Z,96818.19
2022-12-08T00:17:10.064Z,96823.44
2022-12-08T00:19:37.262Z,96822.63
2022-12-08T00:22:03.765Z,96808.00
2022-12-08T00:24:33.218Z,96817.09
2022-12-08T00:26:59.776Z,96791.03
2022-12-08T00:29:26.568Z,96819.84
2022-12-08T00:31:53.899Z,96816.94
2022-12-08T00:34:20.805Z,96805.47
2022-12-08T00:36:47.608Z,96832.13
2022-12-08T00:39:16.424Z,96803.38
2022-12-08T00:42:01.539Z,96835.38
2022-12-08T00:44:28.295Z,96830.56
2022-12-08T00:46:54.915Z,96827.38
2022-12-08T00:49:21.861Z,96839.66
2022-12-08T00:51:48.693Z,96836.28
2022-12-08T00:54:15.306Z,96819.47
2022-12-08T00:56:41.901Z,96816.53
2022-12-08T00:59:08.611Z,96829.66
2022-12-08T01:01:36.363Z,96834.16
2022-12-08T01:04:07.164Z,96824.28
2022-12-08T01:06:35.452Z,96821.06
2022-12-08T01:09:04.081Z,96842.44
2022-12-08T01:11:30.708Z,96838.22
2022-12-08T01:13:57.387Z,96846.41
2022-12-08T01:16:29.617Z,96867.00
2022-12-08T01:18:57.239Z,96849.66
2022-12-08T01:21:23.850Z,96853.13
2022-12-08T01:23:50.474Z,96850.22
2022-12-08T01:26:19.217Z,96859.88
2022-12-08T01:28:47.074Z,96861.69
2022-12-08T01:31:16.976Z,96866.16
2022-12-08T01:33:43.996Z,96861.09
2022-12-08T01:36:21.121Z,96849.31
2022-12-08T01:38:47.906Z,96844.50
2022-12-08T01:41:17.142Z,96855.75
2022-12-08T01:44:11.101Z,96859.69
2022-12-08T01:46:43.030Z,96858.63
2022-12-08T01:49:22.516Z,96858.88
2022-12-08T01:52:20.085Z,96853.81
2022-12-08T01:54:51.558Z,96843.41
2022-12-08T01:57:26.675Z,96838.63
2022-12-08T02:00:00.542Z,96810.09
2022-12-08T02:02:34.315Z,96842.59
2022-12-08T02:05:03.284Z,96846.53
2022-12-08T02:07:30.888Z,96832.63
2022-12-08T02:09:57.911Z,96838.78
2022-12-08T02:12:24.908Z,96850.00
2022-12-08T02:14:51.643Z,96852.16
2022-12-08T02:17:27.390Z,96862.03
2022-12-08T02:20:18.183Z,96858.84
2022-12-08T02:23:02.710Z,96854.69
2022-12-08T02:25:38.470Z,96844.56
2022-12-08T02:28:17.866Z,96855.19
2022-12-08T02:31:10.442Z,96845.06
2022-12-08T02:34:03.080Z,96858.09
2022-12-08T02:36:51.332Z,96858.66
2022-12-08T02:39:23.753Z,96853.13
2022-12-08T02:45:25.310Z,96866.16
2022-12-08T02:47:52.513Z,96835.41
2022-12-08T02:50:19.289Z,96823.41
2022-12-08T02:52:47.933Z,96856.19
2022-12-08T02:55:14.441Z,96859.97
2022-12-08T02:58:07.226Z,96840.22
2022-12-08T03:01:01.777Z,96832.81
2022-12-08T03:03:36.013Z,96858.66
2022-12-08T03:06:20.629Z,96856.31
2022-12-08T03:08:55.396Z,96867.25
2022-12-08T03:11:33.146Z,96829.59
2022-12-08T03:14:02.592Z,96856.28
2022-12-08T03:16:30.963Z,96861.88
2022-12-08T03:19:10.760Z,96849.00
2022-12-08T03:21:37.901Z,96833.28
2022-12-08T03:24:07.980Z,96838.19
2022-12-08T03:26:36.786Z,96835.25
2022-12-08T03:29:04.003Z,96821.81
2022-12-08T03:31:37.574Z,96830.69
2022-12-08T03:34:05.458Z,96836.84
2022-12-08T03:36:32.303Z,96838.91
2022-12-08T03:38:58.949Z,96843.03
2022-12-08T03:41:25.603Z,96848.31
2022-12-08T03:43:59.447Z,96838.97
2022-12-08T03:48:56.320Z,96841.41
2022-12-08T03:51:23.300Z,96847.13
2022-12-08T03:53:50.269Z,96817.47
2022-12-08T03:56:28.705Z,96807.53
2022-12-08T03:58:55.664Z,96823.81
2022-12-08T04:01:22.786Z,96837.88
2022-12-08T04:03:49.556Z,96819.47
2022-12-08T04:06:17.121Z,96812.59
2022-12-08T04:08:44.047Z,96842.50
2022-12-08T04:11:11.185Z,96838.25
2022-12-08T04:13:40.137Z,96846.28
2022-12-08T04:16:07.818Z,96844.16
2022-12-08T04:18:35.553Z,96827.16
2022-12-08T04:21:02.713Z,96841.06
2022-12-08T04:23:29.286Z,96846.69
2022-12-08T04:25:55.853Z,96833.38
2022-12-08T04:28:22.505Z,96832.59
2022-12-08T04:30:49.925Z,96848.06
2022-12-08T04:33:17.117Z,96842.16
2022-12-08T04:35:43.916Z,96810.47
2022-12-08T04:38:10.673Z,96815.78
2022-12-08T04:40:37.315Z,96814.16
2022-12-08T04:43:04.296Z,96835.72
2022-12-08T04:45:31.319Z,96836.81
2022-12-08T04:47:59.543Z,96817.63
2022-12-08T04:50:26.462Z,96797.94
2022-12-08T04:52:53.637Z,96833.69
2022-12-08T04:55:20.405Z,96833.72
2022-12-08T04:58:01.113Z,96819.38
2022-12-08T05:00:27.864Z,96828.69
2022-12-08T05:02:54.666Z,96828.97
2022-12-08T05:05:21.406Z,96818.06
2022-12-08T05:07:48.034Z,96826.31
2022-12-08T05:10:14.669Z,96791.13
2022-12-08T05:12:41.281Z,96820.53
2022-12-08T05:15:08.380Z,96836.22
2022-12-08T05:17:34.907Z,96837.84
2022-12-08T05:20:02.401Z,96841.34
2022-12-08T05:22:29.223Z,96839.19
2022-12-08T05:24:55.840Z,96832.78
2022-12-08T05:27:22.390Z,96840.50
2022-12-08T05:29:50.260Z,96807.69
2022-12-08T05:32:16.998Z,96850.91
2022-12-08T05:34:43.664Z,96847.16
2022-12-08T05:37:10.269Z,96809.00
2022-12-08T05:39:37.021Z,96835.97
2022-12-08T05:42:03.829Z,96847.97
2022-12-08T05:44:30.385Z,96833.53
2022-12-08T05:46:57.081Z,96822.81
2022-12-08T05:49:23.662Z,96825.28
2022-12-08T05:51:50.318Z,96807.38
2022-12-08T05:54:17.011Z,96844.06
2022-12-08T05:56:43.860Z,96813.38
2022-12-08T05:59:10.583Z,96839.50
2022-12-08T06:01:37.284Z,96839.25
2022-12-08T06:04:04.525Z,96855.59
2022-12-08T06:06:32.153Z,96829.72
2022-12-08T06:08:58.826Z,96836.69
2022-12-08T06:11:30.885Z,96865.53
2022-12-08T06:13:58.122Z,96857.22
2022-12-08T06:16:26.445Z,96857.22
2022-12-08T06:18:53.169Z,96861.25
2022-12-08T06:21:20.864Z,96868.47
2022-12-08T06:23:52.586Z,96869.81
2022-12-08T06:26:19.950Z,96868.72
2022-12-08T06:28:46.618Z,96861.75
2022-12-08T06:31:17.548Z,96872.69
2022-12-08T06:33:44.374Z,96864.44
2022-12-08T06:36:13.397Z,96867.34
2022-12-08T06:38:43.268Z,96875.63
2022-12-08T06:41:11.309Z,96875.69
2022-12-08T06:43:38.391Z,96877.78
2022-12-08T06:46:10.840Z,96878.38
2022-12-08T06:48:37.566Z,96874.91
2022-12-08T06:51:13.572Z,96882.91
2022-12-08T06:53:40.778Z,96887.41
2022-12-08T06:56:07.887Z,96890.09
2022-12-08T06:58:34.877Z,96888.19
2022-12-08T07:01:10.598Z,96890.06
2022-12-08T07:03:38.813Z,96891.06
2022-12-08T07:06:06.320Z,96898.22
2022-12-08T07:08:34.125Z,96891.50
2022-12-08T07:11:06.853Z,96881.16
2022-12-08T07:13:33.454Z,96848.28
2022-12-08T07:16:00.117Z,96895.72
2022-12-08T07:18:26.721Z,96891.41
2022-12-08T07:20:53.236Z,96895.91
2022-12-08T07:23:19.810Z,96859.00
2022-12-08T07:25:47.342Z,96897.06
2022-12-08T07:28:14.888Z,96890.88
2022-12-08T07:30:41.544Z,96895.41
2022-12-08T07:33:08.256Z,96867.59
2022-12-08T07:35:35.382Z,96889.41
2022-12-08T07:38:02.591Z,96895.63
2022-12-08T07:40:29.402Z,96894.28
2022-12-08T07:42:55.983Z,96869.16
2022-12-08T07:45:28.214Z,96876.22
2022-12-08T07:47:58.044Z,96904.06
2022-12-08T07:50:24.827Z,96889.25
2022-12-08T07:52:51.391Z,96896.53
2022-12-08T07:55:17.951Z,96878.66
2022-12-08T07:57:44.583Z,96889.41
2022-12-08T08:00:11.734Z,96891.66
2022-12-08T08:02:38.674Z,96880.47
2022-12-08T08:05:06.539Z,96896.16
2022-12-08T08:07:34.661Z,96896.31
2022-12-08T08:10:01.332Z,96882.50
2022-12-08T08:12:32.303Z,96882.56
2022-12-08T08:15:00.875Z,96888.81
2022-12-08T08:17:28.713Z,96889.38
2022-12-08T08:19:55.501Z,96879.66
2022-12-08T08:22:22.042Z,96901.53
2022-12-08T08:24:48.725Z,96889.25
2022-12-08T08:27:15.373Z,96885.84
2022-12-08T08:29:42.054Z,96877.72
2022-12-08T08:32:08.760Z,96887.06
2022-12-08T08:34:35.368Z,96897.16
2022-12-08T08:37:01.963Z,96890.69
2022-12-08T08:39:30.229Z,96891.22
2022-12-08T08:41:56.797Z,96889.34
2022-12-08T08:44:23.574Z,96893.19
2022-12-08T08:46:51.647Z,96889.34
2022-12-08T08:49:18.837Z,96879.72
2022-12-08T08:51:46.036Z,96891.88
2022-12-08T08:54:12.736Z,96859.03
2022-12-08T08:56:39.324Z,96880.03
2022-12-08T08:59:05.982Z,96896.28
2022-12-08T09:01:32.665Z,96884.75
2022-12-08T09:03:59.555Z,96855.78
2022-12-08T09:06:28.294Z,96892.88
2022-12-08T09:08:55.166Z,96885.50
2022-12-08T09:11:23.561Z,96887.56
2022-12-08T09:13:51.712Z,96885.63
2022-12-08T09:16:20.194Z,96875.16
2022-12-08T09:18:48.329Z,96878.41
2022-12-08T09:21:16.849Z,96866.56
2022-12-08T09:23:43.999Z,96856.44
2022-12-08T09:26:10.829Z,96876.00
2022-12-08T09:28:37.975Z,96877.09
2022-12-08T09:31:05.139Z,96850.03
2022-12-08T09:33:31.950Z,96852.06
2022-12-08T09:36:03.610Z,96866.84
2022-12-08T09:38:30.431Z,96864.59
2022-12-08T09:40:57.555Z,96855.59
2022-12-08T09:43:45.500Z,96853.81
2022-12-08T09:46:17.574Z,96837.66
2022-12-08T09:48:55.762Z,96847.06
2022-12-08T09:51:35.429Z,96841.28
2022-12-08T09:54:12.778Z,96830.19
2022-12-08T09:56:39.972Z,96824.31
2022-12-08T09:59:35.075Z,96826.72
2022-12-08T10:02:03.030Z,96807.66
2022-12-08T10:04:36.474Z,96833.19
2022-12-08T10:07:04.721Z,96824.38
2022-12-08T10:09:40.389Z,96824.78
2022-12-08T10:12:26.190Z,96821.28
2022-12-08T10:15:10.162Z,96810.13
2022-12-08T10:17:48.945Z,96831.97
2022-12-08T10:20:20.721Z,96825.06
2022-12-08T10:22:56.309Z,96825.06
2022-12-08T10:25:35.090Z,96813.06
2022-12-08T10:28:01.682Z,96811.06
2022-12-08T10:30:28.336Z,96805.47
2022-12-08T10:32:55.142Z,96805.88
2022-12-08T10:35:23.858Z,96806.59
2022-12-08T10:38:00.667Z,96809.47
2022-12-08T10:40:29.586Z,96771.16
2022-12-08T10:42:59.166Z,96799.00
2022-12-08T10:45:33.338Z,96787.09
2022-12-08T10:48:03.506Z,96800.78
2022-12-08T10:51:00.312Z,96802.97
2022-12-08T10:53:32.382Z,96780.84
2022-12-08T10:56:02.033Z,96803.78
2022-12-08T10:58:40.893Z,96799.06
2022-12-08T11:01:18.871Z,96791.75
2022-12-08T11:03:57.207Z,96793.72
2022-12-08T11:06:36.765Z,96787.22
2022-12-08T11:09:15.664Z,96787.72
2022-12-08T11:11:48.136Z,96784.22
2022-12-08T11:14:35.408Z,96790.38
2022-12-08T11:17:26.347Z,96793.72
2022-12-08T11:19:59.890Z,96789.34
2022-12-08T11:22:29.398Z,96794.06
2022-12-08T11:25:02.858Z,96794.81
2022-12-08T11:27:30.030Z,96782.53
2022-12-08T11:29:57.011Z,96794.13
2022-12-08T11:32:23.907Z,96778.38
2022-12-08T11:35:02.571Z,96782.63
2022-12-08T11:37:35.426Z,96798.69
2022-12-08T11:40:07.467Z,96803.81
2022-12-08T11:42:45.659Z,96785.72
2022-12-08T11:45:19.418Z,96777.88
2022-12-08T11:47:56.364Z,96794.72
2022-12-08T11:50:29.723Z,96770.00
2022-12-08T11:52:58.249Z,96780.34
2022-12-08T11:55:37.060Z,96777.75
2022-12-08T11:58:14.930Z,96794.13
2022-12-08T12:00:41.602Z,96789.34
2022-12-08T12:03:29.767Z,96786.16
2022-12-08T12:06:38.134Z,96757.44
2022-12-08T12:09:53.436Z,96797.44
2022-12-08T12:12:44.931Z,96800.63
2022-12-08T12:15:12.566Z,96794.38
2022-12-08T12:17:49.176Z,96794.97
2022-12-08T12:20:26.019Z,96803.84
2022-12-08T12:23:01.034Z,96795.56
2022-12-08T12:25:28.787Z,96794.78
2022-12-08T12:28:01.547Z,96784.72
2022-12-08T12:30:32.963Z,96807.75
2022-12-08T12:33:02.332Z,96809.16
2022-12-08T12:35:41.437Z,96791.63
2022-12-08T12:38:43.087Z,96789.72
2022-12-08T12:41:16.362Z,96800.19
2022-12-08T12:44:07.855Z,96785.81
2022-12-08T12:46:40.194Z,96777.34
2022-12-08T12:49:40.935Z,96775.75
2022-12-08T12:52:10.549Z,96785.44
2022-12-08T12:54:45.832Z,96770.78
2022-12-08T12:57:12.294Z,96783.00
2022-12-08T13:00:09.485Z,96773.25
2022-12-08T13:02:36.308Z,96777.34
2022-12-08T13:05:24.260Z,96775.84
2022-12-08T13:08:00.709Z,96766.88
2022-12-08T13:10:37.268Z,96767.47
2022-12-08T13:13:09.663Z,96781.31
2022-12-08T13:15:56.346Z,96781.31
2022-12-08T13:18:45.117Z,96774.84
2022-12-08T13:21:18.775Z,96745.91
2022-12-08T13:23:47.290Z,96780.03
2022-12-08T13:26:25.853Z,96756.28
2022-12-08T13:29:01.819Z,96773.63
2022-12-08T13:31:48.289Z,96768.47
2022-12-08T13:34:41.669Z,96766.75
2022-12-08T13:37:37.073Z,96738.66
2022-12-08T13:40:24.045Z,96770.66
2022-12-08T13:43:05.071Z,96763.88
2022-12-08T13:46:26.261Z,96736.34
2022-12-08T13:49:59.170Z,96750.50
2022-12-08T13:57:32.931Z,96760.22
2022-12-08T14:00:02.762Z,96759.44
2022-12-08T14:02:48.195Z,96770.19
2022-12-08T14:05:19.008Z,96781.16
2022-12-08T14:07:51.279Z,96773.78
2022-12-08T14:10:27.760Z,96765.00
2022-12-08T14:13:03.938Z,96773.84
2022-12-08T14:15:37.746Z,96776.72
2022-12-08T14:18:06.163Z,96779.91
2022-12-08T14:20:57.958Z,96765.91
2022-12-08T14:23:22.109Z,96759.22
2022-12-08T14:25:48.918Z,96783.97
2022-12-08T14:28:15.597Z,96786.06
2022-12-08T14:30:42.561Z,96796.31
2022-12-08T14:33:15.288Z,96789.84
2022-12-08T14:35:42.008Z,96791.84
2022-12-08T14:38:20.834Z,96794.53
2022-12-08T14:40:59.419Z,96771.28
2022-12-08T14:43:28.138Z,96770.25
2022-12-08T14:46:00.239Z,96785.44
2022-12-08T14:48:36.441Z,96790.22
2022-12-08T14:51:21.188Z,96792.91
2022-12-08T14:53:54.716Z,96788.63
2022-12-08T14:56:37.356Z,96787.84
2022-12-08T14:59:12.213Z,96790.41
2022-12-08T15:01:39.073Z,96788.56
2022-12-08T15:04:08.615Z,96795.63
2022-12-08T15:06:36.374Z,96786.09
2022-12-08T15:09:17.219Z,96775.31
2022-12-08T15:11:44.549Z,96771.03
2022-12-08T15:14:35.603Z,96778.56
2022-12-08T15:17:02.180Z,96786.25
2022-12-08T15:19:34.296Z,96790.03
2022-12-08T15:22:20.814Z,96789.00
2022-12-08T15:24:47.487Z,96791.13
2022-12-08T15:29:53.801Z,96784.44
2022-12-08T15:32:22.795Z,96789.00
2022-12-08T15:34:50.279Z,96759.31
2022-12-08T15:37:23.382Z,96778.41
2022-12-08T15:39:50.268Z,96783.22
2022-12-08T15:42:17.076Z,96783.72
2022-12-08T15:44:47.167Z,96771.81
2022-12-08T15:47:21.114Z,96788.38
2022-12-08T15:49:49.876Z,96780.38
2022-12-08T15:52:22.879Z,96781.69
2022-12-08T15:54:50.413Z,96776.31
2022-12-08T15:57:44.092Z,96765.06
2022-12-08T16:09:19.417Z,96756.00
2022-12-08T16:12:10.160Z,96780.59
2022-12-08T16:17:27.302Z,96778.22
2022-12-08T16:19:54.834Z,96764.13
2022-12-08T16:25:20.606Z,96733.97
2022-12-08T16:30:37.240Z,96764.69
2022-12-08T16:33:04.026Z,96765.78
2022-12-08T16:35:30.990Z,96766.06
2022-12-08T16:37:58.005Z,96765.00
2022-12-08T16:40:24.691Z,96748.00
2022-12-08T16:42:51.337Z,96767.38
2022-12-08T16:45:44.954Z,96771.59
2022-12-08T16:48:14.646Z,96769.47
2022-12-08T16:50:44.771Z,96742.03
2022-12-08T16:53:12.362Z,96764.41
2022-12-08T16:55:39.756Z,96763.81
2022-12-08T16:58:06.761Z,96762.16
2022-12-08T17:00:37.432Z,96745.09
2022-12-08T17:03:08.431Z,96766.38
2022-12-08T17:05:35.701Z,96747.44
2022-12-08T17:08:02.362Z,96755.19
2022-12-08T17:10:32.138Z,96728.91
2022-12-08T17:13:00.831Z,96729.13
2022-12-08T17:15:27.847Z,96743.25
2022-12-08T17:17:55.444Z,96723.16
2022-12-08T17:20:27.790Z,96748.31
2022-12-08T17:22:56.359Z,96758.16
2022-12-08T17:25:23.443Z,96749.31
2022-12-08T17:27:50.103Z,96749.53
2022-12-08T17:30:17.821Z,96734.38
2022-12-08T17:32:44.888Z,96743.94
2022-12-08T17:35:14.423Z,96751.63
2022-12-08T17:37:41.297Z,96749.03
2022-12-08T17:40:08.906Z,96705.75
2022-12-08T17:42:35.775Z,96693.28
2022-12-08T17:45:02.504Z,96702.25
2022-12-08T17:47:29.428Z,96751.03
2022-12-08T17:49:56.423Z,96740.16
2022-12-08T17:52:39.176Z,96704.94
2022-12-08T17:55:06.371Z,96708.72
2022-12-08T17:57:33.037Z,96743.34
2022-12-08T17:59:59.719Z,96716.41
2022-12-08T18:02:26.467Z,96710.41
2022-12-08T18:04:53.188Z,96743.88
2022-12-08T18:07:20.835Z,96734.47
2022-12-08T18:09:47.533Z,96715.47
2022-12-08T18:12:17.004Z,96724.97
2022-12-08T18:14:48.866Z,96716.00
2022-12-08T18:17:15.521Z,96721.22
2022-12-08T18:19:42.179Z,96715.56
2022-12-08T18:22:09.281Z,96711.56
2022-12-08T18:24:35.921Z,96710.97
2022-12-08T18:27:02.644Z,96703.22
2022-12-08T18:29:29.266Z,96700.75
2022-12-08T18:31:55.962Z,96709.59
2022-12-08T18:34:31.189Z,96678.03
2022-12-08T18:37:13.032Z,96709.09
2022-12-08T18:39:45.168Z,96687.53
2022-12-08T18:42:23.957Z,96697.06
2022-12-08T18:44:58.920Z,96619.44
2022-12-08T18:47:27.186Z,96704.81
2022-12-08T18:49:54.451Z,96693.34
2022-12-08T18:52:28.147Z,96698.16
2022-12-08T18:55:07.796Z,96699.50
2022-12-08T18:57:37.741Z,96709.66
2022-12-08T19:00:07.873Z,96676.44
2022-12-08T19:02:36.186Z,96704.59
2022-12-08T19:05:05.511Z,96703.50
2022-12-08T19:07:33.239Z,96670.50
2022-12-08T19:12:41.634Z,96591.28
2022-12-08T19:15:11.118Z,96603.59
2022-12-08T19:18:38.796Z,96588.09
2022-12-08T19:27:18.295Z,96617.97
2022-12-08T19:30:06.706Z,96698.88
2022-12-08T19:32:35.217Z,96584.97
2022-12-08T19:35:07.530Z,96698.56
2022-12-08T19:37:35.571Z,96558.16
2022-12-08T19:40:21.869Z,96688.69
2022-12-08T19:43:07.068Z,96689.47
2022-12-08T19:45:35.694Z,96689.22
2022-12-08T19:48:05.003Z,96681.72
2022-12-08T19:50:47.553Z,96695.09
2022-12-08T19:55:56.560Z,96610.81
2022-12-08T19:58:23.409Z,96694.00
2022-12-08T20:00:50.367Z,96651.97
2022-12-08T20:03:19.671Z,96696.44
2022-12-08T20:05:49.232Z,96680.72
2022-12-08T20:08:28.571Z,96666.16
2022-12-08T20:10:59.182Z,96655.88
2022-12-08T20:13:44.143Z,96672.13
2022-12-08T20:16:29.866Z,96677.25
2022-12-08T20:21:55.701Z,96685.88
2022-12-08T20:24:54.353Z,96695.22
2022-12-08T20:27:25.527Z,96650.84
2022-12-08T20:29:52.939Z,96691.81
2022-12-08T20:32:19.651Z,96586.28
2022-12-08T20:34:46.310Z,96672.97
2022-12-08T20:37:12.911Z,96660.41
2022-12-08T20:39:39.576Z,96677.22
2022-12-08T20:42:06.343Z,96696.78
2022-12-08T20:44:33.330Z,96682.59
2022-12-08T20:47:00.047Z,96665.13
2022-12-08T20:49:34.253Z,96673.19
2022-12-08T20:52:05.275Z,96653.44
2022-12-08T20:54:46.770Z,96693.47
2022-12-08T20:57:16.553Z,96543.72
2022-12-08T21:20:08.705Z,96614.22
2022-12-08T21:22:35.602Z,96690.09
2022-12-08T21:25:02.326Z,96693.06
2022-12-08T21:27:29.014Z,96693.06
2022-12-08T21:29:56.583Z,96686.06
2022-12-08T21:32:29.933Z,96685.00
2022-12-08T21:34:58.311Z,96692.91
2022-12-08T21:37:25.021Z,96661.00
2022-12-08T21:39:51.859Z,96684.72
2022-12-08T21:42:37.110Z,96676.72
2022-12-08T21:45:04.268Z,96692.53
2022-12-08T21:47:31.206Z,96679.63
2022-12-08T21:49:58.116Z,96681.66
2022-12-08T21:52:24.805Z,96683.03
2022-12-08T21:54:51.525Z,96688.03
2022-12-08T21:57:18.360Z,96633.50
2022-12-08T21:59:45.040Z,96674.47
2022-12-08T22:02:16.644Z,96673.47
2022-12-08T22:04:48.081Z,96667.31
2022-12-08T22:07:14.727Z,96673.75
2022-12-08T22:09:41.688Z,96670.28
2022-12-08T22:12:11.874Z,96668.69
2022-12-08T22:14:39.930Z,96673.97
2022-12-08T22:17:07.512Z,96672.09
2022-12-08T22:19:34.814Z,96665.06
2022-12-08T22:22:01.876Z,96663.94
2022-12-08T22:24:31.859Z,96660.47
2022-12-08T22:26:58.764Z,96660.78
2022-12-08T22:29:25.731Z,96661.56
2022-12-08T22:31:55.421Z,96657.06
2022-12-08T22:34:22.133Z,96659.97
2022-12-08T22:36:49.216Z,96632.84
2022-12-08T22:39:15.948Z,96649.38
2022-12-08T22:41:42.653Z,96659.03
2022-12-08T22:44:09.604Z,96660.53
2022-12-08T22:46:36.313Z,96647.84
2022-12-08T22:49:03.185Z,96669.31
2022-12-08T22:51:30.014Z,96668.53
2022-12-08T22:53:56.832Z,96663.94
2022-12-08T22:56:23.735Z,96667.97
2022-12-08T22:58:52.057Z,96659.38
2022-12-08T23:01:26.773Z,96646.03
2022-12-08T23:03:53.846Z,96659.03
2022-12-08T23:06:24.029Z,96658.94
2022-12-08T23:08:51.289Z,96645.00
2022-12-08T23:11:19.114Z,96651.66
2022-12-08T23:13:46.251Z,96656.16
2022-12-08T23:16:13.296Z,96650.28
2022-12-08T23:18:41.713Z,96631.84
2022-12-08T23:21:12.022Z,96621.81
2022-12-08T23:23:38.722Z,96643.53
2022-12-08T23:26:13.268Z,96661.97
2022-12-08T23:28:39.886Z,96639.34
2022-12-08T23:31:09.504Z,96659.88
2022-12-08T23:33:36.446Z,96656.47
2022-12-08T23:36:03.164Z,96632.53
2022-12-08T23:38:29.903Z,96656.25
2022-12-08T23:41:00.623Z,96641.97
2022-12-08T23:43:27.210Z,96633.69
2022-12-08T23:45:53.944Z,96632.47
2022-12-08T23:48:22.016Z,96642.56
2022-12-08T23:50:49.001Z,96645.25
2022-12-08T23:53:16.495Z,96641.25
2022-12-08T23:55:43.154Z,96638.84
2022-12-08T23:58:09.899Z,96627.97
